createdAt,value
2022-08-19T18:56:02.486Z,14.90
2022-08-19T18:57:03.462Z,14.80
2022-08-19T18:58:02.884Z,15.00
2022-08-19T18:59:02.944Z,15.30
2022-08-19T19:00:02.184Z,15.20
2022-08-19T19:01:02.643Z,14.90
2022-08-19T19:02:02.207Z,15.20
2022-08-19T19:03:14.837Z,14.30
2022-08-19T19:04:02.135Z,14.10
2022-08-19T19:05:06.954Z,14.00
2022-08-19T19:06:30.796Z,13.90
2022-08-19T19:07:02.693Z,13.40
2022-08-19T19:08:02.846Z,13.70
2022-08-19T19:09:03.011Z,14.10
2022-08-19T19:10:03.007Z,13.70
2022-08-19T19:11:02.310Z,13.50
2022-08-19T19:12:02.075Z,13.90
2022-08-19T19:13:06.049Z,13.50
2022-08-19T19:14:27.634Z,13.20
2022-08-19T19:15:02.026Z,13.90
2022-08-19T19:16:09.343Z,13.90
2022-08-19T19:17:02.692Z,14.00
2022-08-19T19:18:02.234Z,14.00
2022-08-19T19:20:37.640Z,13.90
2022-08-19T19:20:42.476Z,13.60
2022-08-19T19:21:42.501Z,14.80
2022-08-19T19:22:43.443Z,13.60
2022-08-19T19:23:43.140Z,13.90
2022-08-19T19:24:46.048Z,14.60
2022-08-19T19:25:50.423Z,13.60
2022-08-19T19:27:37.476Z,13.60
2022-08-19T19:29:39.093Z,13.20
2022-08-19T19:29:47.373Z,13.70
2022-08-19T19:30:43.942Z,13.70
2022-08-19T19:31:45.134Z,14.00
2022-08-19T19:32:43.922Z,14.40
2022-08-19T19:33:58.828Z,15.00
2022-08-19T19:34:44.130Z,14.30
2022-08-19T19:35:47.106Z,13.50
2022-08-19T19:36:43.901Z,13.60
2022-08-19T19:37:51.382Z,13.80
2022-08-19T19:38:48.690Z,13.70
2022-08-19T19:47:49.570Z,13.40
2022-08-19T19:47:56.240Z,13.50
2022-08-19T20:01:08.005Z,13.80
2022-08-19T20:01:21.052Z,13.80
2022-08-19T20:19:25.459Z,13.70
2022-08-19T20:19:30.482Z,13.30
2022-08-19T20:20:32.845Z,13.40
2022-08-19T20:38:53.606Z,12.50
2022-08-19T20:38:58.713Z,13.00
2022-08-19T20:40:02.092Z,12.00
2022-08-19T20:40:58.596Z,12.10
2022-08-19T20:44:05.773Z,13.30
2022-08-19T20:50:16.461Z,12.70
2022-08-19T20:50:21.318Z,12.60
2022-08-19T20:51:21.318Z,11.80
2022-08-19T20:52:21.308Z,11.60
2022-08-19T20:53:21.259Z,12.60
2022-08-19T20:54:21.259Z,12.30
2022-08-19T20:55:21.244Z,12.70
2022-08-19T20:56:21.274Z,13.00
2022-08-19T20:57:21.274Z,13.00
2022-08-19T20:58:21.471Z,12.70
2022-08-19T20:59:21.241Z,12.60
2022-08-19T21:00:21.205Z,13.20
2022-08-19T21:01:21.256Z,12.40
2022-08-19T21:02:21.174Z,12.70
2022-08-19T21:03:21.179Z,12.50
2022-08-19T21:04:21.182Z,13.10
2022-08-19T21:05:21.139Z,12.80
2022-08-19T21:06:22.173Z,12.30
2022-08-19T21:07:22.052Z,13.10
2022-08-19T21:08:21.128Z,12.60
2022-08-19T21:09:21.137Z,12.30
2022-08-19T21:10:21.102Z,12.70
2022-08-19T21:11:21.101Z,12.30
2022-08-19T21:12:24.589Z,11.80
2022-08-19T21:13:21.057Z,11.70
2022-08-19T21:14:21.053Z,11.90
2022-08-19T21:15:21.049Z,11.60
2022-08-19T21:16:21.048Z,11.80
2022-08-19T21:17:21.014Z,11.80
2022-08-19T21:18:21.869Z,12.00
2022-08-19T21:19:24.087Z,11.90
2022-08-19T21:20:20.992Z,11.70
2022-08-19T21:21:21.014Z,12.00
2022-08-19T21:22:20.971Z,11.30
2022-08-19T21:23:20.959Z,11.20
2022-08-19T21:24:20.989Z,11.30
2022-08-19T21:25:21.642Z,11.30
2022-08-19T21:26:20.999Z,10.80
2022-08-19T21:27:20.908Z,10.90
2022-08-19T21:28:35.048Z,11.00
2022-08-19T21:29:20.908Z,11.40
2022-08-19T21:30:20.885Z,11.50
2022-08-19T21:31:20.889Z,10.40
2022-08-19T21:32:20.873Z,12.00
2022-08-19T21:33:19.847Z,11.40
2022-08-19T21:34:20.854Z,11.20
2022-08-19T21:35:21.488Z,12.30
2022-08-19T21:36:20.851Z,11.70
2022-08-19T21:37:25.770Z,11.70
2022-08-19T21:38:20.867Z,11.40
2022-08-19T21:39:20.803Z,11.10
2022-08-19T21:40:20.785Z,10.40
2022-08-19T21:41:20.793Z,10.20
2022-08-19T21:42:20.777Z,9.70
2022-08-19T21:43:21.571Z,9.70
2022-08-19T21:44:20.748Z,9.50
2022-08-19T21:45:20.744Z,9.50
2022-08-19T21:46:21.493Z,9.50
2022-08-19T21:47:20.868Z,9.50
2022-08-19T21:48:20.839Z,9.30
2022-08-19T21:49:20.695Z,9.90
2022-08-19T21:50:20.690Z,9.80
2022-08-19T21:51:21.147Z,9.70
2022-08-19T21:52:20.660Z,9.80
2022-08-19T21:53:22.824Z,9.00
2022-08-19T21:54:20.638Z,9.10
2022-08-19T21:55:20.632Z,9.90
2022-08-19T21:56:21.002Z,10.30
2022-08-19T21:57:20.617Z,9.80
2022-08-19T21:58:28.381Z,9.40
2022-08-19T21:59:20.591Z,9.10
2022-08-19T22:00:20.579Z,8.90
2022-08-19T22:01:20.604Z,8.30
2022-08-19T22:02:21.498Z,9.20
2022-08-19T22:03:20.789Z,8.60
2022-08-19T22:04:20.553Z,8.50
2022-08-19T22:05:20.531Z,8.20
2022-08-19T22:06:21.511Z,8.00
2022-08-19T22:07:21.276Z,8.20
2022-08-19T22:08:20.508Z,8.00
2022-08-19T22:09:20.479Z,7.60
2022-08-19T22:10:22.225Z,7.90
2022-08-19T22:11:20.508Z,8.30
2022-08-19T22:12:20.462Z,7.30
2022-08-19T22:13:20.450Z,7.40
2022-08-19T22:14:20.437Z,7.40
2022-08-19T22:15:20.655Z,7.00
2022-08-19T22:16:20.659Z,7.40
2022-08-19T22:17:20.399Z,7.80
2022-08-19T22:18:20.464Z,7.10
2022-08-19T22:19:21.013Z,7.30
2022-08-19T22:20:20.396Z,7.70
2022-08-19T22:21:40.491Z,7.60
2022-08-19T22:22:20.365Z,8.00
2022-08-19T22:23:21.071Z,7.50
2022-08-19T22:24:20.339Z,7.60
2022-08-19T22:25:30.088Z,7.40
2022-08-19T22:26:20.348Z,7.20
2022-08-19T22:27:20.303Z,7.50
2022-08-19T22:28:27.895Z,7.20
2022-08-19T22:29:20.279Z,7.00
2022-08-19T22:30:20.274Z,6.90
2022-08-19T22:31:20.285Z,6.90
2022-08-19T22:32:26.756Z,7.20
2022-08-19T22:33:20.242Z,6.40
2022-08-19T22:34:20.235Z,7.10
2022-08-19T22:35:20.221Z,6.90
2022-08-19T22:36:20.215Z,7.20
2022-08-19T22:37:20.214Z,7.40
2022-08-19T22:38:20.196Z,7.40
2022-08-19T22:39:20.217Z,7.90
2022-08-19T22:40:20.166Z,8.20
2022-08-19T22:41:20.156Z,8.40
2022-08-19T22:42:20.518Z,8.20
2022-08-19T22:43:20.137Z,7.70
2022-08-19T22:44:20.144Z,7.30
2022-08-19T22:45:20.122Z,6.80
2022-08-19T22:46:20.314Z,6.90
2022-08-19T22:47:20.145Z,7.50
2022-08-19T22:48:20.110Z,6.80
2022-08-19T22:49:20.093Z,6.60
2022-08-19T22:50:20.117Z,6.70
2022-08-19T22:51:20.047Z,6.10
2022-08-19T22:52:20.077Z,5.80
2022-08-19T22:53:20.045Z,5.80
2022-08-19T22:54:20.046Z,5.60
2022-08-19T22:55:20.007Z,6.00
2022-08-19T22:56:20.010Z,5.90
2022-08-19T22:57:20.035Z,5.80
2022-08-19T22:58:27.026Z,5.60
2022-08-19T22:59:19.972Z,5.70
2022-08-19T23:00:19.966Z,5.60
2022-08-19T23:01:27.716Z,6.10
2022-08-19T23:02:19.966Z,6.00
2022-08-19T23:03:19.962Z,6.00
2022-08-19T23:04:19.923Z,5.60
2022-08-19T23:05:21.850Z,6.10
2022-08-19T23:06:19.899Z,5.80
2022-08-19T23:07:23.578Z,5.80
2022-08-19T23:08:19.890Z,5.70
2022-08-19T23:09:19.875Z,5.90
2022-08-19T23:10:26.891Z,6.10
2022-08-19T23:11:19.850Z,6.20
2022-08-19T23:12:19.880Z,5.90
2022-08-19T23:13:19.828Z,6.00
2022-08-19T23:14:19.830Z,6.20
2022-08-19T23:15:19.824Z,6.40
2022-08-19T23:16:19.803Z,6.60
2022-08-19T23:17:20.450Z,6.20
2022-08-19T23:18:19.788Z,6.50
2022-08-19T23:19:19.765Z,6.30
2022-08-19T23:20:19.769Z,6.40
2022-08-19T23:21:19.749Z,6.30
2022-08-19T23:22:19.759Z,6.30
2022-08-19T23:23:19.738Z,6.10
2022-08-19T23:24:19.961Z,6.50
2022-08-19T23:25:19.705Z,6.20
2022-08-19T23:26:19.693Z,6.50
2022-08-19T23:27:19.706Z,6.50
2022-08-19T23:28:19.678Z,6.70
2022-08-19T23:29:19.661Z,6.30
2022-08-19T23:30:19.657Z,6.10
2022-08-19T23:31:19.652Z,6.00
2022-08-19T23:32:19.654Z,6.60
2022-08-19T23:33:19.619Z,6.40
2022-08-19T23:34:19.622Z,6.00
2022-08-19T23:35:19.603Z,6.40
2022-08-19T23:36:19.781Z,6.10
2022-08-19T23:37:19.616Z,6.30
2022-08-19T23:38:19.578Z,6.30
2022-08-19T23:39:19.595Z,6.90
2022-08-19T23:40:19.564Z,7.60
2022-08-19T23:41:19.544Z,7.20
2022-08-19T23:42:19.549Z,7.30
2022-08-19T23:43:24.543Z,8.40
2022-08-19T23:44:19.761Z,7.60
2022-08-19T23:45:23.552Z,8.10
2022-08-19T23:46:28.408Z,9.20
2022-08-19T23:47:42.139Z,8.80
2022-08-19T23:48:40.476Z,9.20
2022-08-19T23:49:19.463Z,9.60
2022-08-19T23:50:19.440Z,9.80
2022-08-19T23:51:19.454Z,9.60
2022-08-19T23:52:19.547Z,10.20
2022-08-19T23:53:19.422Z,10.60
2022-08-19T23:54:19.403Z,11.60
2022-08-19T23:55:19.400Z,10.70
2022-08-19T23:56:19.389Z,10.10
2022-08-19T23:57:19.392Z,9.50
2022-08-19T23:58:19.362Z,7.60
2022-08-19T23:59:19.354Z,8.50
